createdAt,value
2016-11-02T08:46:05.717Z,100036
2016-11-02T08:47:08.776Z,100036
2016-11-02T08:48:11.840Z,100054
2016-11-02T08:49:14.905Z,100048
2016-11-02T08:59:08.329Z,100045
2016-11-02T09:00:11.397Z,100048
2016-11-02T09:01:14.462Z,100051
2016-11-02T09:02:17.530Z,100048
2016-11-02T09:03:20.597Z,100042
2016-11-02T09:04:23.668Z,100042
2016-11-02T09:05:26.731Z,100045
2016-11-02T09:06:29.808Z,100051
2016-11-02T09:07:32.880Z,100039
2016-11-02T13:00:43.988Z,100045
2016-11-02T13:01:47.056Z,100054
2016-11-02T13:02:50.110Z,100042
2016-11-02T13:03:53.172Z,100051
2016-11-02T13:04:56.231Z,100048
2016-11-02T13:05:59.295Z,100054
2016-11-02T13:07:02.356Z,100051
2016-11-02T13:08:05.419Z,100060
2016-11-02T13:09:08.479Z,100048
2016-11-02T13:10:11.552Z,100045
2016-11-02T13:11:14.609Z,100063
2016-11-02T13:12:17.898Z,100057
2016-11-02T13:13:20.964Z,100060
2016-11-02T13:14:24.044Z,100063
2016-11-02T13:15:27.099Z,100060
2016-11-02T13:18:23.028Z,100062
2016-11-02T13:19:36.201Z,100062
2016-11-02T13:20:39.277Z,100057
2016-11-02T13:21:42.342Z,100076
2016-11-02T13:22:45.409Z,100059
2016-11-02T13:23:48.474Z,100065
2016-11-02T13:24:51.543Z,100065
2016-11-02T13:26:56.415Z,100079
2016-11-02T13:27:59.496Z,100068
2016-11-02T13:29:02.559Z,100082
2016-11-02T13:30:05.631Z,100082
2016-11-02T13:31:08.697Z,100065
2016-11-02T13:38:46.220Z,100076
2016-11-02T13:39:49.301Z,100079
2016-11-02T13:40:52.365Z,100079
2016-11-02T13:41:55.437Z,100076
2016-11-02T13:42:58.723Z,100082
2016-11-02T13:44:01.793Z,100068
2016-11-02T13:46:28.066Z,100085
2016-11-02T13:47:31.589Z,100079
2016-11-02T13:48:35.119Z,100088
2016-11-02T13:49:38.657Z,100082
2016-11-02T13:51:01.143Z,1001
2016-11-02T13:52:04.686Z,1000
2016-11-02T13:53:08.210Z,1001
2016-11-02T13:54:11.743Z,1001
2016-11-02T13:56:12.548Z,1001
2016-11-02T13:57:16.091Z,1001
2016-11-02T13:58:19.632Z,1001
2016-11-02T13:59:23.153Z,1001
2016-11-02T14:00:26.682Z,1001
2016-11-02T14:01:30.212Z,1001
2016-11-02T14:02:33.736Z,1001
2016-11-02T14:03:37.273Z,1001
2016-11-02T14:04:40.805Z,1001
2016-11-02T14:05:44.345Z,1001
2016-11-02T14:28:56.628Z,1001
2016-11-02T14:30:00.172Z,1002
2016-11-02T14:31:03.709Z,1001
2016-11-02T14:32:07.239Z,1002
2016-11-02T14:33:10.769Z,1002
2016-11-02T14:34:14.298Z,1002
2016-11-02T14:35:18.004Z,1002
2016-11-02T14:36:21.386Z,1002
2016-11-02T14:37:24.927Z,1002
2016-11-02T14:38:28.467Z,1002
2016-11-02T14:39:31.989Z,1002
2016-11-02T14:40:35.530Z,1002
2016-11-02T14:41:39.066Z,1002
2016-11-02T14:42:42.602Z,1002
2016-11-02T14:43:46.129Z,1002
2016-11-02T14:44:49.664Z,1002
2016-11-02T14:45:53.199Z,1002
2016-11-02T14:46:56.833Z,1002
2016-11-02T14:48:00.363Z,1002
2016-11-02T14:49:03.902Z,1002
2016-11-02T14:59:24.894Z,1002
2016-11-02T15:00:28.423Z,1002
2016-11-02T15:01:32.110Z,1002
2016-11-02T15:02:35.627Z,1002
2016-11-02T15:03:39.142Z,1002
2016-11-02T15:04:42.696Z,1002
2016-11-02T15:05:46.204Z,1002
2016-11-02T15:06:49.808Z,1002
2016-11-02T15:07:53.333Z,1002
2016-11-02T15:08:56.900Z,1002
2016-11-02T15:10:00.416Z,1002
2016-11-02T15:11:03.942Z,1002
2016-11-02T15:12:07.466Z,1002
2016-11-02T15:13:10.993Z,1002
2016-11-02T15:14:14.509Z,1002
2016-11-02T15:15:18.385Z,1002
2016-11-02T15:16:22.011Z,1002
2016-11-02T15:17:25.528Z,1002
2016-11-02T15:18:29.056Z,1002
2016-11-02T15:19:32.591Z,1002
2016-11-02T15:20:36.104Z,1002
2016-11-02T15:21:39.628Z,1002
2016-11-02T15:22:43.145Z,1002
2016-11-02T15:23:46.671Z,1002
2016-11-02T15:24:50.187Z,1002
2016-11-02T15:25:53.710Z,1002
2016-11-02T15:26:57.240Z,1002
2016-11-02T15:28:00.755Z,1002
2016-11-02T15:29:04.280Z,1002
2016-11-02T15:30:07.790Z,1002
2016-11-02T15:31:11.317Z,1002
2016-11-02T15:32:14.843Z,1002
2016-11-02T15:33:18.364Z,1002
2016-11-02T15:34:21.886Z,1002
2016-11-02T15:35:25.399Z,1002
2016-11-02T15:36:29.014Z,1002
2016-11-02T15:37:32.537Z,1002
2016-11-02T15:38:36.056Z,1002
2016-11-02T15:39:39.577Z,1002
2016-11-02T15:40:43.100Z,1002
2016-11-02T15:41:46.624Z,1002
2016-11-02T15:42:50.139Z,1002
2016-11-02T15:43:53.656Z,1002
2016-11-02T15:44:57.179Z,1002
2016-11-02T15:46:00.693Z,1002
2016-11-02T15:47:04.212Z,1002
2016-11-02T15:48:07.732Z,1002
2016-11-02T15:49:11.251Z,1002
2016-11-02T15:50:14.765Z,1002
2016-11-02T15:51:18.289Z,1002
2016-11-02T15:52:21.803Z,1002
2016-11-02T15:53:25.322Z,1002
2016-11-02T15:54:28.849Z,1002
2016-11-02T15:55:32.360Z,1002
2016-11-02T15:56:35.875Z,1002
2016-11-02T15:57:39.402Z,1002
2016-11-02T15:58:42.922Z,1002
2016-11-02T15:59:46.442Z,1002
2016-11-02T16:00:49.966Z,1002
2016-11-02T16:01:53.482Z,1002
2016-11-02T16:02:57.003Z,1003
2016-11-02T16:04:00.523Z,1003
2016-11-02T16:05:04.034Z,1003
2016-11-02T16:06:07.556Z,1003
2016-11-02T16:07:11.081Z,1003
2016-11-02T16:08:14.601Z,1002
2016-11-02T16:09:18.115Z,1002
2016-11-02T16:10:21.635Z,1003
2016-11-02T16:11:25.164Z,1003
2016-11-02T16:12:28.690Z,1003
2016-11-02T16:13:32.205Z,1003
2016-11-02T16:14:35.726Z,1003
2016-11-02T16:15:39.248Z,1003
2016-11-02T16:16:42.771Z,1003
2016-11-02T16:17:46.282Z,1003
2016-11-02T16:18:49.808Z,1003
2016-11-02T16:19:53.319Z,1003
2016-11-02T16:20:56.833Z,1003
2016-11-02T16:22:00.352Z,1003
2016-11-02T16:23:03.878Z,1003
2016-11-02T16:24:07.390Z,1003
2016-11-02T16:25:10.914Z,1003
2016-11-02T16:26:14.440Z,1003
2016-11-02T16:27:17.967Z,1003
2016-11-02T16:28:21.481Z,1003
2016-11-02T16:29:25.005Z,1003
2016-11-02T16:30:28.522Z,1003
2016-11-02T16:31:32.043Z,1003
2016-11-02T16:32:35.559Z,1003
2016-11-02T16:33:39.088Z,1003
2016-11-02T16:34:42.606Z,1003
2016-11-02T16:35:46.125Z,1003
2016-11-02T16:36:49.649Z,1003
2016-11-02T16:37:53.178Z,1003
2016-11-02T16:38:56.692Z,1003
2016-11-02T16:40:00.216Z,1003
2016-11-02T16:41:03.737Z,1003
2016-11-02T16:42:07.249Z,1003
2016-11-02T16:43:10.766Z,1003
2016-11-02T16:44:14.287Z,1003
2016-11-02T16:45:17.810Z,1003
2016-11-02T16:46:21.319Z,1003
2016-11-02T16:47:24.852Z,1003
2016-11-02T16:48:28.370Z,1003
2016-11-02T16:49:31.892Z,1003
2016-11-02T16:50:35.404Z,1003
2016-11-02T16:51:38.926Z,1003
2016-11-02T16:52:42.444Z,1003
2016-11-02T16:53:45.962Z,1003
2016-11-02T16:54:49.475Z,1003
2016-11-02T16:55:53.004Z,1003
2016-11-02T16:56:56.522Z,1003
2016-11-02T16:58:00.043Z,1003
2016-11-02T16:59:03.747Z,1003
2016-11-02T17:00:07.263Z,1003
2016-11-02T17:01:14.271Z,1003
2016-11-02T17:02:18.135Z,1003
2016-11-02T17:03:21.645Z,1003
2016-11-02T17:04:25.165Z,1003
2016-11-02T17:05:28.685Z,1003
2016-11-02T17:06:32.232Z,1004
2016-11-02T17:07:35.726Z,1004
2016-11-02T17:08:39.248Z,1004
2016-11-02T17:09:42.771Z,1004
2016-11-02T17:10:46.308Z,1003
2016-11-02T17:11:49.823Z,1004
2016-11-02T17:12:53.206Z,1004
2016-11-02T17:13:56.736Z,1004
2016-11-02T17:15:00.314Z,1003
2016-11-02T17:16:03.765Z,1004
2016-11-02T17:17:07.320Z,1004
2016-11-02T17:18:10.809Z,1004
2016-11-02T17:19:14.331Z,1004
2016-11-02T17:20:17.847Z,1004
2016-11-02T17:21:21.381Z,1004
2016-11-02T17:22:24.909Z,1004
2016-11-02T17:23:28.429Z,1004
2016-11-02T17:24:31.946Z,1004
2016-11-02T17:25:35.487Z,1004
2016-11-02T17:26:38.997Z,1004
2016-11-02T17:27:42.518Z,1004
2016-11-02T17:28:46.031Z,1004
2016-11-02T17:29:49.549Z,1004
2016-11-02T17:30:53.074Z,1004
2016-11-02T17:31:56.586Z,1004
2016-11-02T17:33:00.128Z,1004
2016-11-02T17:34:03.656Z,1004
2016-11-02T17:35:07.234Z,1004
2016-11-02T17:36:10.751Z,1004
2016-11-02T17:37:14.287Z,1004
2016-11-02T17:38:17.884Z,1004
2016-11-02T17:39:21.393Z,1004
2016-11-02T17:40:24.908Z,1004
2016-11-02T17:41:28.422Z,1004
2016-11-02T17:42:31.942Z,1004
2016-11-02T17:43:35.466Z,1004
2016-11-02T17:44:38.975Z,1004
2016-11-02T17:45:42.495Z,1004
2016-11-02T17:46:46.009Z,1004
2016-11-02T17:47:49.527Z,1004
2016-11-02T17:48:53.040Z,1004
2016-11-02T17:49:56.566Z,1004
2016-11-02T17:51:00.089Z,1004
2016-11-02T17:52:03.844Z,1004
2016-11-02T17:53:07.386Z,1004
2016-11-02T17:54:10.877Z,1004
2016-11-02T17:55:14.404Z,1004
2016-11-02T17:56:17.920Z,1004
2016-11-02T17:57:21.456Z,1004
2016-11-02T17:58:24.957Z,1004
2016-11-02T17:59:28.472Z,1004
2016-11-02T18:00:31.994Z,1004
2016-11-02T18:01:35.740Z,1004
2016-11-02T18:02:39.274Z,1004
2016-11-02T18:03:42.782Z,1004
2016-11-02T18:04:46.311Z,1004
2016-11-02T18:05:49.827Z,1004
2016-11-02T18:06:53.386Z,1004
2016-11-02T18:07:56.856Z,1004
2016-11-02T18:09:00.375Z,1004
2016-11-02T18:10:03.899Z,1004
2016-11-02T18:11:07.409Z,1004
2016-11-02T18:12:10.932Z,1004
2016-11-02T18:13:14.455Z,1004
2016-11-02T18:14:17.977Z,1004
2016-11-02T18:15:21.487Z,1004
2016-11-02T18:16:25.004Z,1004
2016-11-02T18:17:28.534Z,1004
2016-11-02T18:18:32.041Z,1004
2016-11-02T18:19:35.563Z,1004
2016-11-02T18:20:39.085Z,1004
2016-11-02T18:21:42.605Z,1004
2016-11-02T18:22:46.128Z,1004
2016-11-02T18:23:49.646Z,1004
2016-11-02T18:24:53.157Z,1004
2016-11-02T18:25:56.684Z,1004
2016-11-02T18:27:00.205Z,1004
2016-11-02T18:28:03.720Z,1004
2016-11-02T18:29:07.255Z,1004
2016-11-02T18:30:10.766Z,1004
2016-11-02T18:31:14.289Z,1004
2016-11-02T18:32:17.806Z,1004
2016-11-02T18:33:21.342Z,1004
2016-11-02T18:34:24.854Z,1004
2016-11-02T18:37:26.310Z,1004
2016-11-02T18:38:29.835Z,1004
2016-11-02T18:39:33.357Z,1004
2016-11-02T18:40:36.859Z,1004
2016-11-02T18:41:40.376Z,1004
2016-11-02T18:42:43.989Z,1004
2016-11-02T18:43:47.506Z,1004
2016-11-02T18:44:51.020Z,1004
2016-11-02T18:45:54.538Z,1004
2016-11-02T18:46:58.065Z,1004
2016-11-02T18:48:01.576Z,1004
2016-11-02T18:49:05.096Z,1004
2016-11-02T18:50:08.615Z,1004
2016-11-02T18:51:12.142Z,1004
2016-11-02T18:52:15.657Z,1004
2016-11-02T18:53:19.223Z,1005
2016-11-02T18:54:22.748Z,1004
2016-11-02T18:55:26.258Z,1004
2016-11-02T18:56:29.786Z,1004
2016-11-02T18:57:33.321Z,1004
2016-11-02T18:58:36.841Z,1004
2016-11-02T18:59:40.370Z,1005
2016-11-02T19:00:43.880Z,1004
2016-11-02T19:01:47.405Z,1004
2016-11-02T19:02:50.920Z,1005
2016-11-02T19:03:54.439Z,1005
2016-11-02T19:04:57.956Z,1004
2016-11-02T19:06:01.473Z,1004
2016-11-02T19:07:04.992Z,1004
2016-11-02T19:08:08.514Z,1004
2016-11-02T19:09:12.035Z,1005
2016-11-02T19:10:15.558Z,1005
2016-11-02T19:11:19.080Z,1005
2016-11-02T19:12:22.595Z,1005
2016-11-02T19:13:26.105Z,1005
2016-11-02T19:14:29.722Z,1005
2016-11-02T19:15:33.241Z,1005
2016-11-02T19:16:36.758Z,1005
2016-11-02T19:17:40.279Z,1005
2016-11-02T19:18:43.801Z,1005
2016-11-02T19:19:47.324Z,1005
2016-11-02T19:20:50.845Z,1005
2016-11-02T19:21:54.364Z,1005
2016-11-02T19:22:57.880Z,1005
2016-11-02T19:24:01.414Z,1005
2016-11-02T19:25:04.935Z,1005
2016-11-02T19:26:08.455Z,1005
2016-11-02T19:27:11.966Z,1005
2016-11-02T19:28:15.485Z,1005
2016-11-02T19:29:19.007Z,1005
2016-11-02T19:30:22.551Z,1005
2016-11-02T19:31:26.047Z,1005
2016-11-02T19:32:29.566Z,1005
2016-11-02T19:33:33.091Z,1005
2016-11-02T19:34:36.612Z,1005
2016-11-02T19:35:40.139Z,1005
2016-11-02T19:36:43.658Z,1005
2016-11-02T19:37:47.176Z,1005
2016-11-02T19:38:50.692Z,1005
2016-11-02T19:39:54.217Z,1005
2016-11-02T19:40:57.731Z,1005
2016-11-02T19:42:01.246Z,1005
2016-11-02T19:43:04.766Z,1005
2016-11-02T19:44:08.286Z,1005
2016-11-02T19:45:12.033Z,1005
2016-11-02T19:46:15.195Z,1005
2016-11-02T19:47:18.720Z,1005
2016-11-02T19:48:22.236Z,1005
2016-11-02T19:49:25.765Z,1005
2016-11-02T19:50:29.287Z,1005
2016-11-02T19:51:32.802Z,1005
2016-11-02T19:52:36.324Z,1005
2016-11-02T19:53:39.848Z,1005
2016-11-02T19:54:43.368Z,1005
2016-11-02T19:55:46.885Z,1005
2016-11-02T19:56:50.408Z,1005
2016-11-02T19:57:53.920Z,1005
2016-11-02T19:58:57.439Z,1005
2016-11-02T20:00:00.954Z,1005
2016-11-02T20:01:04.490Z,1005
2016-11-02T20:02:07.992Z,1005
2016-11-02T20:03:11.513Z,1005
2016-11-02T20:04:15.035Z,1005
2016-11-02T20:05:18.577Z,1005
2016-11-02T20:06:22.083Z,1005
2016-11-02T20:07:25.649Z,1005
2016-11-02T20:08:29.166Z,1005
2016-11-02T20:09:32.683Z,1005
2016-11-02T20:10:36.198Z,1005
2016-11-02T20:11:39.725Z,1005
2016-11-02T20:12:43.241Z,1005
2016-11-02T20:13:46.751Z,1005
2016-11-02T20:14:50.273Z,1005
2016-11-02T20:15:53.800Z,1005
2016-11-02T20:16:57.313Z,1005
2016-11-02T20:18:00.843Z,1006
2016-11-02T20:19:04.364Z,1006
2016-11-02T20:20:07.875Z,1005
2016-11-02T20:21:11.389Z,1005
2016-11-02T20:22:14.919Z,1006
2016-11-02T20:23:18.435Z,1005
2016-11-02T20:24:21.943Z,1006
2016-11-02T20:25:25.477Z,1006
2016-11-02T20:26:28.991Z,1006
2016-11-02T20:27:32.517Z,1006
2016-11-02T20:28:36.035Z,1006
2016-11-02T20:29:39.557Z,1006
2016-11-02T20:30:43.071Z,1006
2016-11-02T20:31:46.599Z,1006
2016-11-02T20:32:50.102Z,1006
2016-11-02T20:33:53.623Z,1006
2016-11-02T20:34:57.148Z,1006
2016-11-02T20:36:00.691Z,1006
2016-11-02T20:37:04.205Z,1006
2016-11-02T20:38:07.715Z,1006
2016-11-02T20:39:11.237Z,1006
2016-11-02T20:40:14.755Z,1006
2016-11-02T20:41:18.271Z,1006
2016-11-02T20:42:21.799Z,1006
2016-11-02T20:43:25.321Z,1006
2016-11-02T20:44:28.835Z,1006
2016-11-02T20:45:32.359Z,1006
2016-11-02T20:46:35.876Z,1006
2016-11-02T20:47:39.396Z,1006
2016-11-02T20:48:42.912Z,1006
2016-11-02T20:49:46.428Z,1006
2016-11-02T20:50:49.948Z,1006
2016-11-02T20:51:53.467Z,1006
2016-11-02T20:52:56.987Z,1006
2016-11-02T20:54:00.506Z,1006
2016-11-02T20:55:04.029Z,1006
2016-11-02T20:56:07.560Z,1006
2016-11-02T20:57:11.068Z,1006
2016-11-02T20:58:14.594Z,1006
2016-11-02T20:59:18.111Z,1006
2016-11-02T21:00:21.633Z,1006
2016-11-02T21:01:25.155Z,1006
2016-11-02T21:02:28.672Z,1006
2016-11-02T21:03:32.192Z,1006
2016-11-02T21:04:35.715Z,1006
2016-11-02T21:05:39.229Z,1006
2016-11-02T21:06:42.748Z,1006
2016-11-02T21:07:46.268Z,1006
2016-11-02T21:08:49.783Z,1006
2016-11-02T21:09:53.300Z,1006
2016-11-02T21:10:56.820Z,1006
2016-11-02T21:12:00.344Z,1006
2016-11-02T21:13:03.864Z,1006
2016-11-02T21:14:07.378Z,1006
2016-11-02T21:15:10.899Z,1006
2016-11-02T21:16:14.411Z,1006
2016-11-02T21:17:17.928Z,1006
2016-11-02T21:18:21.447Z,1006
2016-11-02T21:19:24.967Z,1006
2016-11-02T21:20:28.484Z,1006
2016-11-02T21:21:32.004Z,1006
2016-11-02T21:22:35.517Z,1006
2016-11-02T21:23:39.031Z,1006
2016-11-02T21:24:42.552Z,1006
2016-11-02T21:25:46.074Z,1006
2016-11-02T21:26:49.587Z,1006
2016-11-02T21:27:53.104Z,1006
2016-11-02T21:28:56.626Z,1006
2016-11-02T21:30:00.153Z,1006
2016-11-02T21:31:03.685Z,1006
2016-11-02T21:32:07.185Z,1006
2016-11-02T21:33:10.706Z,1006
2016-11-02T21:34:14.220Z,1006
